sensor_id;sensor_type;location;lat;lon;timestamp;pressure;altitude;pressure_sealevel;temperature;humidity
61506;BME280;47366;51.916;4.574;2023-03-23T00:02:06;100241.41;;;11.82;89.45
61506;BME280;47366;51.916;4.574;2023-03-23T00:04:32;100246.63;;;11.85;89.84
61506;BME280;47366;51.916;4.574;2023-03-23T00:06:57;100229.34;;;11.86;89.59
61506;BME280;47366;51.916;4.574;2023-03-23T00:09:25;100232.31;;;11.83;89.65
61506;BME280;47366;51.916;4.574;2023-03-23T00:11:51;100234.28;;;11.81;89.15
61506;BME280;47366;51.916;4.574;2023-03-23T00:14:16;100234.28;;;11.81;89.18
61506;BME280;47366;51.916;4.574;2023-03-23T00:16:47;100232.41;;;11.81;88.63
61506;BME280;47366;51.916;4.574;2023-03-23T00:19:14;100224.28;;;11.81;88.97
61506;BME280;47366;51.916;4.574;2023-03-23T00:21:40;100215.16;;;11.82;88.69
61506;BME280;47366;51.916;4.574;2023-03-23T00:24:15;100222.41;;;11.82;88.77
61506;BME280;47366;51.916;4.574;2023-03-23T00:26:46;100219.69;;;11.82;88.67
61506;BME280;47366;51.916;4.574;2023-03-23T00:29:21;100209.84;;;11.81;88.08
61506;BME280;47366;51.916;4.574;2023-03-23T00:31:48;100217.00;;;11.82;87.77
61506;BME280;47366;51.916;4.574;2023-03-23T00:34:16;100215.88;;;11.84;88.20
61506;BME280;47366;51.916;4.574;2023-03-23T00:36:53;100215.88;;;11.84;87.91
61506;BME280;47366;51.916;4.574;2023-03-23T00:39:22;100209.59;;;11.84;88.12
61506;BME280;47366;51.916;4.574;2023-03-23T00:41:49;100212.31;;;11.84;87.83
61506;BME280;47366;51.916;4.574;2023-03-23T00:44:14;100204.06;;;11.85;88.12
61506;BME280;47366;51.916;4.574;2023-03-23T00:46:43;100200.59;;;11.83;87.77
61506;BME280;47366;51.916;4.574;2023-03-23T00:49:13;100194.41;;;11.81;87.70
61506;BME280;47366;51.916;4.574;2023-03-23T00:51:40;100210.34;;;11.86;87.88
61506;BME280;47366;51.916;4.574;2023-03-23T00:54:05;100200.34;;;11.86;88.05
61506;BME280;47366;51.916;4.574;2023-03-23T00:56:31;100201.34;;;11.85;88.28
61506;BME280;47366;51.916;4.574;2023-03-23T00:58:56;100207.88;;;11.83;87.86
61506;BME280;47366;51.916;4.574;2023-03-23T01:01:21;100210.69;;;11.81;87.68
61506;BME280;47366;51.916;4.574;2023-03-23T01:03:47;100203.56;;;11.80;87.40
61506;BME280;47366;51.916;4.574;2023-03-23T01:06:12;100199.84;;;11.81;87.28
61506;BME280;47366;51.916;4.574;2023-03-23T01:08:39;100180.84;;;11.81;87.63
61506;BME280;47366;51.916;4.574;2023-03-23T01:11:12;100187.28;;;11.80;87.10
61506;BME280;47366;51.916;4.574;2023-03-23T01:13:37;100179.13;;;11.80;87.90
61506;BME280;47366;51.916;4.574;2023-03-23T01:16:03;100189.00;;;11.81;87.73
61506;BME280;47366;51.916;4.574;2023-03-23T01:18:28;100172.97;;;11.78;87.96
61506;BME280;47366;51.916;4.574;2023-03-23T01:20:53;100181.22;;;11.77;87.93
61506;BME280;47366;51.916;4.574;2023-03-23T01:23:19;100184.78;;;11.77;87.97
61506;BME280;47366;51.916;4.574;2023-03-23T01:25:44;100172.22;;;11.76;88.10
61506;BME280;47366;51.916;4.574;2023-03-23T01:28:10;100167.88;;;11.74;88.19
61506;BME280;47366;51.916;4.574;2023-03-23T01:30:36;100161.81;;;11.70;88.59
61506;BME280;47366;51.916;4.574;2023-03-23T01:33:02;100161.09;;;11.68;88.41
61506;BME280;47366;51.916;4.574;2023-03-23T01:35:27;100172.81;;;11.68;87.99
61506;BME280;47366;51.916;4.574;2023-03-23T01:37:53;100183.53;;;11.70;88.68
61506;BME280;47366;51.916;4.574;2023-03-23T01:40:19;100177.13;;;11.71;88.74
61506;BME280;47366;51.916;4.574;2023-03-23T01:42:44;100167.50;;;11.67;88.81
61506;BME280;47366;51.916;4.574;2023-03-23T01:45:23;100155.03;;;11.64;88.80
61506;BME280;47366;51.916;4.574;2023-03-23T01:47:54;100154.19;;;11.64;88.85
61506;BME280;47366;51.916;4.574;2023-03-23T01:50:21;100156.13;;;11.62;88.84
61506;BME280;47366;51.916;4.574;2023-03-23T01:52:51;100152.44;;;11.63;88.78
61506;BME280;47366;51.916;4.574;2023-03-23T01:55:19;100147.00;;;11.63;89.10
61506;BME280;47366;51.916;4.574;2023-03-23T01:57:45;100140.84;;;11.61;89.23
61506;BME280;47366;51.916;4.574;2023-03-23T02:00:11;100150.72;;;11.62;89.22
61506;BME280;47366;51.916;4.574;2023-03-23T02:02:45;100143.56;;;11.61;89.45
61506;BME280;47366;51.916;4.574;2023-03-23T02:05:17;100159.59;;;11.64;89.11
61506;BME280;47366;51.916;4.574;2023-03-23T02:07:45;100155.38;;;11.60;89.29
61506;BME280;47366;51.916;4.574;2023-03-23T02:10:11;100154.41;;;11.61;89.42
61506;BME280;47366;51.916;4.574;2023-03-23T02:12:36;100160.72;;;11.61;89.57
61506;BME280;47366;51.916;4.574;2023-03-23T02:15:02;100162.78;;;11.58;89.85
61506;BME280;47366;51.916;4.574;2023-03-23T02:17:38;100161.81;;;11.59;89.81
61506;BME280;47366;51.916;4.574;2023-03-23T02:20:17;100160.06;;;11.58;89.75
61506;BME280;47366;51.916;4.574;2023-03-23T02:36:05;100143.69;;;11.59;89.57
61506;BME280;47366;51.916;4.574;2023-03-23T02:38:40;100139.09;;;11.60;89.63
61506;BME280;47366;51.916;4.574;2023-03-23T02:41:08;100151.56;;;11.62;89.73
61506;BME280;47366;51.916;4.574;2023-03-23T02:43:40;100140.72;;;11.62;89.49
61506;BME280;47366;51.916;4.574;2023-03-23T02:46:10;100131.47;;;11.65;89.89
61506;BME280;47366;51.916;4.574;2023-03-23T02:48:36;100125.44;;;11.61;89.46
61506;BME280;47366;51.916;4.574;2023-03-23T02:51:04;100147.00;;;11.63;89.12
61506;BME280;47366;51.916;4.574;2023-03-23T02:53:30;100137.03;;;11.63;88.96
61506;BME280;47366;51.916;4.574;2023-03-23T02:55:59;100149.59;;;11.64;89.45
61506;BME280;47366;51.916;4.574;2023-03-23T02:58:28;100145.28;;;11.62;89.60
61506;BME280;47366;51.916;4.574;2023-03-23T03:00:54;100154.41;;;11.61;89.55
61506;BME280;47366;51.916;4.574;2023-03-23T03:03:23;100151.56;;;11.62;89.36
61506;BME280;47366;51.916;4.574;2023-03-23T03:06:10;100149.50;;;11.66;89.57
61506;BME280;47366;51.916;4.574;2023-03-23T03:08:45;100128.75;;;11.65;89.63
61506;BME280;47366;51.916;4.574;2023-03-23T03:11:17;100129.88;;;11.62;89.97
61506;BME280;47366;51.916;4.574;2023-03-23T03:14:26;100143.31;;;11.64;89.60
61506;BME280;47366;51.916;4.574;2023-03-23T03:17:07;100129.00;;;11.62;89.95
61506;BME280;47366;51.916;4.574;2023-03-23T03:19:38;100134.53;;;11.60;89.75
61506;BME280;47366;51.916;4.574;2023-03-23T03:22:06;100121.72;;;11.62;89.46
61506;BME280;47366;51.916;4.574;2023-03-23T03:24:34;100117.16;;;11.63;89.32
61506;BME280;47366;51.916;4.574;2023-03-23T03:27:04;100126.28;;;11.62;89.67
61506;BME280;47366;51.916;4.574;2023-03-23T03:29:36;100122.94;;;11.58;89.62
61506;BME280;47366;51.916;4.574;2023-03-23T03:32:09;100119.16;;;11.61;89.27
61506;BME280;47366;51.916;4.574;2023-03-23T03:34:35;100126.41;;;11.60;89.61
61506;BME280;47366;51.916;4.574;2023-03-23T03:37:00;100126.53;;;11.59;89.79
61506;BME280;47366;51.916;4.574;2023-03-23T03:39:26;100131.09;;;11.58;89.85
61506;BME280;47366;51.916;4.574;2023-03-23T03:41:52;100139.22;;;11.58;89.75
61506;BME280;47366;51.916;4.574;2023-03-23T03:44:19;100141.06;;;11.58;89.59
61506;BME280;47366;51.916;4.574;2023-03-23T03:46:44;100142.81;;;11.59;89.36
61506;BME280;47366;51.916;4.574;2023-03-23T03:49:10;100124.94;;;11.56;89.50
61506;BME280;47366;51.916;4.574;2023-03-23T03:51:40;100131.09;;;11.58;89.41
61506;BME280;47366;51.916;4.574;2023-03-23T03:54:06;100141.06;;;11.58;89.23
61506;BME280;47366;51.916;4.574;2023-03-23T03:56:31;100147.59;;;11.55;89.39
61506;BME280;47366;51.916;4.574;2023-03-23T03:59:01;100142.31;;;11.54;89.36
61506;BME280;47366;51.916;4.574;2023-03-23T04:01:27;100125.91;;;11.55;88.74
61506;BME280;47366;51.916;4.574;2023-03-23T04:03:53;100152.91;;;11.57;89.02
61506;BME280;47366;51.916;4.574;2023-03-23T04:06:20;100162.91;;;11.56;89.08
61506;BME280;47366;51.916;4.574;2023-03-23T04:08:46;100160.41;;;11.53;88.93
61506;BME280;47366;51.916;4.574;2023-03-23T04:11:12;100166.72;;;11.54;88.93
61506;BME280;47366;51.916;4.574;2023-03-23T04:13:39;100158.81;;;11.51;88.26
61506;BME280;47366;51.916;4.574;2023-03-23T04:16:05;100161.41;;;11.52;88.54
61506;BME280;47366;51.916;4.574;2023-03-23T04:18:31;100143.38;;;11.51;88.66
61506;BME280;47366;51.916;4.574;2023-03-23T04:21:00;100154.88;;;11.55;88.42
61506;BME280;47366;51.916;4.574;2023-03-23T04:23:28;100165.84;;;11.53;88.37
61506;BME280;47366;51.916;4.574;2023-03-23T04:25:55;100156.84;;;11.53;88.55
61506;BME280;47366;51.916;4.574;2023-03-23T04:28:23;100165.31;;;11.48;89.36
61506;BME280;47366;51.916;4.574;2023-03-23T04:30:51;100176.75;;;11.40;90.65
61506;BME280;47366;51.916;4.574;2023-03-23T04:33:19;100176.25;;;11.35;91.01
61506;BME280;47366;51.916;4.574;2023-03-23T04:35:45;100181.91;;;11.32;91.41
61506;BME280;47366;51.916;4.574;2023-03-23T04:38:14;100191.13;;;11.30;91.40
61506;BME280;47366;51.916;4.574;2023-03-23T04:40:41;100183.72;;;11.20;92.00
61506;BME280;47366;51.916;4.574;2023-03-23T04:43:07;100181.44;;;11.14;92.69
61506;BME280;47366;51.916;4.574;2023-03-23T04:45:34;100183.28;;;11.14;93.16
61506;BME280;47366;51.916;4.574;2023-03-23T04:48:03;100195.56;;;11.07;93.57
61506;BME280;47366;51.916;4.574;2023-03-23T04:50:31;100204.66;;;11.05;93.97
61506;BME280;47366;51.916;4.574;2023-03-23T04:52:59;100198.28;;;11.07;93.90
61506;BME280;47366;51.916;4.574;2023-03-23T04:55:30;100209.31;;;11.03;94.04
61506;BME280;47366;51.916;4.574;2023-03-23T04:57:56;100212.03;;;11.03;94.25
61506;BME280;47366;51.916;4.574;2023-03-23T05:00:21;100201.75;;;10.96;94.54
61506;BME280;47366;51.916;4.574;2023-03-23T05:02:47;100199.19;;;10.94;95.26
61506;BME280;47366;51.916;4.574;2023-03-23T05:05:17;100198.44;;;10.92;95.36
61506;BME280;47366;51.916;4.574;2023-03-23T05:07:43;100201.47;;;10.88;95.94
61506;BME280;47366;51.916;4.574;2023-03-23T05:10:11;100189.03;;;10.85;96.92
61506;BME280;47366;51.916;4.574;2023-03-23T05:12:37;100189.13;;;10.83;96.56
61506;BME280;47366;51.916;4.574;2023-03-23T05:15:03;100205.38;;;10.83;96.31
61506;BME280;47366;51.916;4.574;2023-03-23T05:17:29;100205.47;;;10.82;96.46
61506;BME280;47366;51.916;4.574;2023-03-23T05:19:55;100211.25;;;10.77;96.79
61506;BME280;47366;51.916;4.574;2023-03-23T05:22:22;100212.13;;;10.78;97.26
61506;BME280;47366;51.916;4.574;2023-03-23T05:24:48;100205.09;;;10.75;97.30
61506;BME280;47366;51.916;4.574;2023-03-23T05:27:17;100204.84;;;10.78;97.37
61506;BME280;47366;51.916;4.574;2023-03-23T05:29:44;100218.94;;;10.83;97.89
61506;BME280;47366;51.916;4.574;2023-03-23T05:32:13;100225.22;;;10.84;97.85
61506;BME280;47366;51.916;4.574;2023-03-23T05:34:39;100229.53;;;10.87;97.28
61506;BME280;47366;51.916;4.574;2023-03-23T05:37:05;100234.22;;;10.84;97.32
61506;BME280;47366;51.916;4.574;2023-03-23T05:39:31;100239.50;;;10.86;97.22
61506;BME280;47366;51.916;4.574;2023-03-23T05:41:57;100237.13;;;10.81;96.97
61506;BME280;47366;51.916;4.574;2023-03-23T05:44:23;100242.44;;;10.83;97.35
61506;BME280;47366;51.916;4.574;2023-03-23T05:46:49;100229.34;;;10.77;97.68
61506;BME280;47366;51.916;4.574;2023-03-23T05:49:15;100243.13;;;10.74;98.29
61506;BME280;47366;51.916;4.574;2023-03-23T05:51:42;100250.72;;;10.69;98.77
61506;BME280;47366;51.916;4.574;2023-03-23T05:54:08;100241.19;;;10.63;98.85
61506;BME280;47366;51.916;4.574;2023-03-23T05:56:33;100243.91;;;10.63;98.88
61506;BME280;47366;51.916;4.574;2023-03-23T05:58:59;100243.00;;;10.62;98.21
61506;BME280;47366;51.916;4.574;2023-03-23T06:01:25;100248.41;;;10.62;99.04
61506;BME280;47366;51.916;4.574;2023-03-23T06:03:51;100249.31;;;10.63;99.19
61506;BME280;47366;51.916;4.574;2023-03-23T06:06:22;100266.28;;;10.65;99.06
61506;BME280;47366;51.916;4.574;2023-03-23T06:08:47;100272.38;;;10.69;99.16
61506;BME280;47366;51.916;4.574;2023-03-23T06:11:15;100267.72;;;10.71;99.02
61506;BME280;47366;51.916;4.574;2023-03-23T06:13:40;100283.97;;;10.71;98.94
61506;BME280;47366;51.916;4.574;2023-03-23T06:16:07;100283.22;;;10.69;98.97
61506;BME280;47366;51.916;4.574;2023-03-23T06:18:33;100273.47;;;10.66;100.00
61506;BME280;47366;51.916;4.574;2023-03-23T06:21:02;100279.22;;;10.61;99.81
61506;BME280;47366;51.916;4.574;2023-03-23T06:23:28;100286.34;;;10.62;99.72
61506;BME280;47366;51.916;4.574;2023-03-23T06:25:56;100291.00;;;10.60;100.00
61506;BME280;47366;51.916;4.574;2023-03-23T06:28:22;100282.25;;;10.57;100.00
61506;BME280;47366;51.916;4.574;2023-03-23T06:30:48;100296.53;;;10.59;100.00
61506;BME280;47366;51.916;4.574;2023-03-23T06:33:13;100299.25;;;10.59;100.00
61506;BME280;47366;51.916;4.574;2023-03-23T06:35:38;100302.91;;;10.58;100.00
61506;BME280;47366;51.916;4.574;2023-03-23T06:38:03;100312.66;;;10.60;100.00
61506;BME280;47366;51.916;4.574;2023-03-23T06:40:29;100306.28;;;10.61;100.00
61506;BME280;47366;51.916;4.574;2023-03-23T06:42:56;100306.28;;;10.61;100.00
61506;BME280;47366;51.916;4.574;2023-03-23T06:45:22;100295.69;;;10.58;99.85
61506;BME280;47366;51.916;4.574;2023-03-23T06:47:47;100299.13;;;10.60;99.57
61506;BME280;47366;51.916;4.574;2023-03-23T06:50:16;100321.78;;;10.59;99.71
61506;BME280;47366;51.916;4.574;2023-03-23T06:52:48;100313.75;;;10.58;99.41
61506;BME280;47366;51.916;4.574;2023-03-23T06:55:14;100304.66;;;10.59;99.33
61506;BME280;47366;51.916;4.574;2023-03-23T06:57:41;100317.44;;;10.57;99.68
61506;BME280;47366;51.916;4.574;2023-03-23T07:00:08;100313.97;;;10.55;99.85
61506;BME280;47366;51.916;4.574;2023-03-23T07:02:36;100307.59;;;10.56;99.91
61506;BME280;47366;51.916;4.574;2023-03-23T07:05:01;100323.84;;;10.56;99.67
61506;BME280;47366;51.916;4.574;2023-03-23T07:07:28;100320.16;;;10.57;99.91
61506;BME280;47366;51.916;4.574;2023-03-23T07:09:54;100320.06;;;10.58;99.31
61506;BME280;47366;51.916;4.574;2023-03-23T07:12:20;100313.88;;;10.56;99.31
61506;BME280;47366;51.916;4.574;2023-03-23T07:14:46;100311.94;;;10.58;99.16
61506;BME280;47366;51.916;4.574;2023-03-23T07:17:11;100322.00;;;10.56;99.79
61506;BME280;47366;51.916;4.574;2023-03-23T07:19:36;100329.13;;;10.57;100.00
61506;BME280;47366;51.916;4.574;2023-03-23T07:22:04;100334.47;;;10.59;99.85
61506;BME280;47366;51.916;4.574;2023-03-23T07:24:30;100335.84;;;10.65;100.00
61506;BME280;47366;51.916;4.574;2023-03-23T07:26:55;100322.84;;;10.70;99.72
61506;BME280;47366;51.916;4.574;2023-03-23T07:29:21;100313.63;;;10.72;100.00
61506;BME280;47366;51.916;4.574;2023-03-23T07:31:46;100315.63;;;10.70;100.00
61506;BME280;47366;51.916;4.574;2023-03-23T07:34:12;100315.38;;;10.73;99.97
61506;BME280;47366;51.916;4.574;2023-03-23T07:36:37;100319.81;;;10.74;100.00
61506;BME280;47366;51.916;4.574;2023-03-23T07:39:04;100322.66;;;10.73;100.00
61506;BME280;47366;51.916;4.574;2023-03-23T07:41:33;100321.75;;;10.72;99.66
61506;BME280;47366;51.916;4.574;2023-03-23T07:43:58;100332.16;;;10.91;99.82
61506;BME280;47366;51.916;4.574;2023-03-23T07:46:23;100336.31;;;10.97;99.12
61506;BME280;47366;51.916;4.574;2023-03-23T07:48:49;100338.09;;;11.22;99.33
61506;BME280;47366;51.916;4.574;2023-03-23T07:51:15;100346.56;;;11.30;98.09
61506;BME280;47366;51.916;4.574;2023-03-23T07:53:44;100348.75;;;11.25;97.51
61506;BME280;47366;51.916;4.574;2023-03-23T07:56:11;100356.63;;;11.15;98.09
61506;BME280;47366;51.916;4.574;2023-03-23T07:58:37;100357.19;;;11.08;98.57
61506;BME280;47366;51.916;4.574;2023-03-23T08:01:03;100350.25;;;11.03;99.39
61506;BME280;47366;51.916;4.574;2023-03-23T08:03:28;100342.34;;;11.00;99.08
61506;BME280;47366;51.916;4.574;2023-03-23T08:05:57;100347.44;;;11.18;99.74
61506;BME280;47366;51.916;4.574;2023-03-23T08:08:24;100341.88;;;11.32;99.39
61506;BME280;47366;51.916;4.574;2023-03-23T08:10:49;100345.78;;;11.65;98.29
61506;BME280;47366;51.916;4.574;2023-03-23T08:13:15;100350.53;;;11.87;96.58
61506;BME280;47366;51.916;4.574;2023-03-23T08:15:40;100344.19;;;12.10;95.82
61506;BME280;47366;51.916;4.574;2023-03-23T08:18:06;100352.47;;;12.33;94.45
61506;BME280;47366;51.916;4.574;2023-03-23T08:20:32;100349.25;;;12.39;93.56
61506;BME280;47366;51.916;4.574;2023-03-23T08:22:58;100349.38;;;12.38;93.83
61506;BME280;47366;51.916;4.574;2023-03-23T08:25:25;100359.34;;;12.26;93.51
61506;BME280;47366;51.916;4.574;2023-03-23T08:27:51;100355.81;;;12.13;93.56
61506;BME280;47366;51.916;4.574;2023-03-23T08:30:18;100371.69;;;12.06;93.95
61506;BME280;47366;51.916;4.574;2023-03-23T08:32:51;100369.13;;;12.04;93.80
61506;BME280;47366;51.916;4.574;2023-03-23T08:35:18;100370.06;;;12.27;93.68
61506;BME280;47366;51.916;4.574;2023-03-23T08:37:45;100370.06;;;12.63;92.07
61506;BME280;47366;51.916;4.574;2023-03-23T08:40:13;100363.19;;;12.81;88.50
61506;BME280;47366;51.916;4.574;2023-03-23T08:42:41;100367.63;;;12.71;88.69
61506;BME280;47366;51.916;4.574;2023-03-23T08:45:11;100375.13;;;12.56;90.23
61506;BME280;47366;51.916;4.574;2023-03-23T08:47:37;100382.56;;;12.65;90.56
61506;BME280;47366;51.916;4.574;2023-03-23T08:50:05;100382.13;;;12.94;89.82
61506;BME280;47366;51.916;4.574;2023-03-23T08:52:30;100378.94;;;13.11;86.93
61506;BME280;47366;51.916;4.574;2023-03-23T08:54:56;100386.00;;;13.36;87.76
61506;BME280;47366;51.916;4.574;2023-03-23T08:57:22;100378.59;;;13.61;86.45
61506;BME280;47366;51.916;4.574;2023-03-23T08:59:48;100376.25;;;13.56;84.24
61506;BME280;47366;51.916;4.574;2023-03-23T09:02:13;100379.47;;;13.39;84.90
61506;BME280;47366;51.916;4.574;2023-03-23T09:04:39;100365.84;;;13.50;85.63
61506;BME280;47366;51.916;4.574;2023-03-23T09:07:08;100373.03;;;13.29;85.20
61506;BME280;47366;51.916;4.574;2023-03-23T09:09:33;100372.41;;;13.25;85.72
61506;BME280;47366;51.916;4.574;2023-03-23T09:11:59;100364.03;;;13.28;83.57
61506;BME280;47366;51.916;4.574;2023-03-23T09:14:25;100372.63;;;13.22;84.23
61506;BME280;47366;51.916;4.574;2023-03-23T09:16:50;100381.16;;;13.17;85.97
61506;BME280;47366;51.916;4.574;2023-03-23T09:19:16;100378.69;;;13.26;85.05
61506;BME280;47366;51.916;4.574;2023-03-23T09:21:41;100389.69;;;13.24;84.46
61506;BME280;47366;51.916;4.574;2023-03-23T09:24:07;100384.63;;;13.20;84.62
61506;BME280;47366;51.916;4.574;2023-03-23T09:26:32;100387.69;;;13.04;84.55
61506;BME280;47366;51.916;4.574;2023-03-23T09:28:58;100397.72;;;12.92;83.17
61506;BME280;47366;51.916;4.574;2023-03-23T09:31:23;100398.06;;;12.87;83.97
61506;BME280;47366;51.916;4.574;2023-03-23T09:33:52;100398.06;;;12.87;83.94
61506;BME280;47366;51.916;4.574;2023-03-23T09:36:18;100399.69;;;12.90;83.45
61506;BME280;47366;51.916;4.574;2023-03-23T09:38:46;100405.63;;;13.06;82.79
61506;BME280;47366;51.916;4.574;2023-03-23T09:44:03;100409.59;;;13.25;81.64
61506;BME280;47366;51.916;4.574;2023-03-23T09:49:17;100406.19;;;13.56;79.88
61506;BME280;47366;51.916;4.574;2023-03-23T09:51:51;100398.56;;;13.94;78.07
61506;BME280;47366;51.916;4.574;2023-03-23T09:54:22;100412.72;;;14.20;77.08
61506;BME280;47366;51.916;4.574;2023-03-23T09:56:49;100413.00;;;14.17;75.70
61506;BME280;47366;51.916;4.574;2023-03-23T10:01:51;100424.34;;;13.78;78.38
61506;BME280;47366;51.916;4.574;2023-03-23T10:04:38;100431.16;;;13.50;78.25
61506;BME280;47366;51.916;4.574;2023-03-23T10:09:36;100435.00;;;13.48;79.06
61506;BME280;47366;51.916;4.574;2023-03-23T10:12:09;100423.47;;;13.55;78.56
61506;BME280;47366;51.916;4.574;2023-03-23T10:15:04;100428.41;;;13.84;78.15
61506;BME280;47366;51.916;4.574;2023-03-23T10:17:39;100429.59;;;14.14;77.22
61506;BME280;47366;51.916;4.574;2023-03-23T10:25:37;100428.97;;;14.21;76.38
61506;BME280;47366;51.916;4.574;2023-03-23T10:30:43;100429.28;;;14.72;73.18
61506;BME280;47366;51.916;4.574;2023-03-23T10:33:15;100428.56;;;15.12;72.70
61506;BME280;47366;51.916;4.574;2023-03-23T10:35:59;100425.34;;;15.27;71.09
61506;BME280;47366;51.916;4.574;2023-03-23T10:38:32;100416.22;;;15.38;70.08
61506;BME280;47366;51.916;4.574;2023-03-23T10:41:06;100409.06;;;15.16;71.59
61506;BME280;47366;51.916;4.574;2023-03-23T10:43:34;100421.63;;;14.86;70.84
61506;BME280;47366;51.916;4.574;2023-03-23T10:46:05;100423.28;;;14.99;71.59
61506;BME280;47366;51.916;4.574;2023-03-23T10:48:37;100427.47;;;15.45;70.65
61506;BME280;47366;51.916;4.574;2023-03-23T10:51:11;100431.56;;;15.39;70.44
61506;BME280;47366;51.916;4.574;2023-03-23T10:53:48;100433.69;;;15.05;70.71
61506;BME280;47366;51.916;4.574;2023-03-23T10:56:22;100431.41;;;15.10;71.83
61506;BME280;47366;51.916;4.574;2023-03-23T10:58:48;100428.97;;;15.07;71.73
61506;BME280;47366;51.916;4.574;2023-03-23T11:01:14;100431.13;;;15.13;71.25
61506;BME280;47366;51.916;4.574;2023-03-23T11:03:45;100423.38;;;14.88;69.33
61506;BME280;47366;51.916;4.574;2023-03-23T11:06:21;100426.00;;;14.57;71.29
61506;BME280;47366;51.916;4.574;2023-03-23T11:11:20;100428.38;;;14.07;71.78
61506;BME280;47366;51.916;4.574;2023-03-23T11:13:55;100425.19;;;13.90;73.60
61506;BME280;47366;51.916;4.574;2023-03-23T11:16:32;100437.31;;;13.86;74.68
61506;BME280;47366;51.916;4.574;2023-03-23T11:19:00;100439.44;;;13.60;74.03
61506;BME280;47366;51.916;4.574;2023-03-23T11:21:37;100449.59;;;13.47;74.45
61506;BME280;47366;51.916;4.574;2023-03-23T11:24:03;100434.00;;;13.37;75.39
61506;BME280;47366;51.916;4.574;2023-03-23T11:26:32;100447.34;;;13.41;75.89
61506;BME280;47366;51.916;4.574;2023-03-23T11:29:17;100451.19;;;13.38;76.43
61506;BME280;47366;51.916;4.574;2023-03-23T11:31:50;100442.53;;;13.44;76.61
61506;BME280;47366;51.916;4.574;2023-03-23T11:34:32;100430.28;;;13.84;76.28
61506;BME280;47366;51.916;4.574;2023-03-23T11:37:03;100425.13;;;14.13;74.04
61506;BME280;47366;51.916;4.574;2023-03-23T11:39:46;100415.13;;;14.57;73.47
61506;BME280;47366;51.916;4.574;2023-03-23T11:42:17;100414.59;;;15.05;72.45
61506;BME280;47366;51.916;4.574;2023-03-23T11:44:44;100419.69;;;15.19;71.17
61506;BME280;47366;51.916;4.574;2023-03-23T11:50:10;100410.25;;;14.60;71.09
61506;BME280;47366;51.916;4.574;2023-03-23T11:58:04;100423.47;;;14.33;71.71
61506;BME280;47366;51.916;4.574;2023-03-23T12:00:32;100420.78;;;14.86;71.79
61506;BME280;47366;51.916;4.574;2023-03-23T12:03:03;100409.47;;;15.12;70.96
61506;BME280;47366;51.916;4.574;2023-03-23T12:05:54;100406.91;;;15.71;69.81
61506;BME280;47366;51.916;4.574;2023-03-23T12:08:29;100424.06;;;15.62;67.65
61506;BME280;47366;51.916;4.574;2023-03-23T12:11:12;100426.81;;;15.62;67.81
61506;BME280;47366;51.916;4.574;2023-03-23T12:22:09;100419.78;;;15.08;68.43
61506;BME280;47366;51.916;4.574;2023-03-23T12:27:44;100428.50;;;14.81;69.45
61506;BME280;47366;51.916;4.574;2023-03-23T12:36:03;100402.22;;;15.01;69.77
61506;BME280;47366;51.916;4.574;2023-03-23T12:38:48;100405.25;;;15.28;69.58
61506;BME280;47366;51.916;4.574;2023-03-23T12:41:20;100400.66;;;15.60;67.64
61506;BME280;47366;51.916;4.574;2023-03-23T12:44:04;100402.25;;;16.03;67.01
61506;BME280;47366;51.916;4.574;2023-03-23T12:49:48;100391.63;;;16.68;64.74
61506;BME280;47366;51.916;4.574;2023-03-23T12:53:26;100388.59;;;16.22;66.19
61506;BME280;47366;51.916;4.574;2023-03-23T12:58:13;100393.88;;;15.54;67.56
61506;BME280;47366;51.916;4.574;2023-03-23T13:05:52;100421.97;;;14.93;68.52
61506;BME280;47366;51.916;4.574;2023-03-23T13:08:46;100432.88;;;14.72;69.05
61506;BME280;47366;51.916;4.574;2023-03-23T13:11:20;100415.94;;;14.69;68.85
61506;BME280;47366;51.916;4.574;2023-03-23T13:13:53;100419.16;;;14.62;69.50
61506;BME280;47366;51.916;4.574;2023-03-23T13:19:36;100425.31;;;14.76;67.94
61506;BME280;47366;51.916;4.574;2023-03-23T13:22:20;100423.22;;;14.68;68.27
61506;BME280;47366;51.916;4.574;2023-03-23T13:24:53;100441.84;;;14.63;68.02
61506;BME280;47366;51.916;4.574;2023-03-23T13:27:24;100433.59;;;14.74;68.47
61506;BME280;47366;51.916;4.574;2023-03-23T13:29:52;100435.94;;;15.21;67.74
61506;BME280;47366;51.916;4.574;2023-03-23T13:32:19;100420.16;;;15.55;66.93
61506;BME280;47366;51.916;4.574;2023-03-23T13:34:46;100426.63;;;15.85;65.75
61506;BME280;47366;51.916;4.574;2023-03-23T13:39:53;100406.69;;;15.63;64.93
61506;BME280;47366;51.916;4.574;2023-03-23T13:42:26;100418.66;;;15.41;66.87
61506;BME280;47366;51.916;4.574;2023-03-23T13:45:07;100420.38;;;15.33;66.48
61506;BME280;47366;51.916;4.574;2023-03-23T13:47:41;100410.91;;;15.16;67.02
61506;BME280;47366;51.916;4.574;2023-03-23T14:05:32;100412.94;;;15.75;65.75
61506;BME280;47366;51.916;4.574;2023-03-23T14:08:05;100402.66;;;15.98;65.10
61506;BME280;47366;51.916;4.574;2023-03-23T14:10:44;100400.03;;;15.87;65.31
61506;BME280;47366;51.916;4.574;2023-03-23T14:13:20;100400.66;;;15.60;62.77
61506;BME280;47366;51.916;4.574;2023-03-23T14:16:03;100402.19;;;15.53;64.36
61506;BME280;47366;51.916;4.574;2023-03-23T14:18:38;100383.69;;;15.66;65.20
61506;BME280;47366;51.916;4.574;2023-03-23T14:21:05;100395.97;;;15.71;65.11
61506;BME280;47366;51.916;4.574;2023-03-23T14:23:34;100368.81;;;15.80;64.59
61506;BME280;47366;51.916;4.574;2023-03-23T14:26:11;100369.84;;;15.88;64.09
61506;BME280;47366;51.916;4.574;2023-03-23T14:28:42;100350.19;;;15.95;63.78
61506;BME280;47366;51.916;4.574;2023-03-23T14:31:34;100348.31;;;16.05;64.26
61506;BME280;47366;51.916;4.574;2023-03-23T14:34:09;100348.44;;;16.03;63.65